KAGC/AGC METAR and TAF weather

Enter ICAO airport designator
Station Type Date Time Source
KAGC METAR 2018/06/25 01:53 UTC NOAA

KAGC 250153Z 30004KT 10SM CLR 19/18 A2999 RMK AO2 SLP151 T01890183


Station Type Date Time Source
KAGC Decoded METAR 2018/06/25 01:53 UTC NOAA

PITTSBURGH ALLEGHENY CTY., PA, United States (KAGC) 40-21N 079-55W 389M
Jun 24, 2018 - 09:53 PM EDT / 2018.06.25 0153 UTC
Wind: from the WNW (300 degrees) at 5 MPH (4 KT):0
Visibility: 10 mile(s):0
Sky conditions: clear
Temperature: 66.0 F (18.9 C)
Dew Point: 64.9 F (18.3 C)
Relative Humidity: 96%
Pressure (altimeter): 29.99 in. Hg (1015 hPa)
ob: KAGC 250153Z 30004KT 10SM CLR 19/18 A2999 RMK AO2 SLP151 T01890183
cycle: 2

Station Type Date Time Source
KAGC TAF 2018/06/24 21:06 UTC NOAA

TAF
AMD KAGC 242103Z 2421/2518 27010KT P6SM SCT050
TEMPO 2423/2424 -SHRA BKN035
FM250000 30006KT P6SM SCT050
FM250400 33003KT P6SM SCT012
FM251000 34005KT P6SM BKN007
FM251300 35005KT P6SM SKC


Example: see airport list